Fort Dearborn, Illinois
Current Conditions -  °F | °C
As of 11:53 AM on Saturday 20 Dec 2014 (Local Time) from KMDW Reporting Station
Overcast Overcast  
Wind Chill: 27°   Ceiling: 4800
Heat Index: 34°   Visibility: 9mi
Dew Point: 25°   Wind: 9mph
Humidity: 70%   Direction: 210°SSW
Pressure: 30.27"   Gusts: NA
Location:  41.8946°N, 87.6187°W
Report Text: KMDW 201753Z 21008KT 9SM FEW017 BKN048 OVC065 01/M04 A3027 RMK AO2 SNE37 SLP260 P0000 60000 T00111039 10011 20000 58006
Loading
Personal Weather Stations






























Interactive Weather Map New forecast layout! Learn more

10-Day Weather Forecast

Advertisements
Track Severe Weather on mobile